X  Stänga Metar väderdata för luftfart     EDVE Braunschweig-Wolfsburg Airport
Temperatur
17°C Temperatur
11°C Daggpunkt
68% Fuktighet



Vind
13 KM/T
8 MPH
4 M/S
7 KTS



330°
NNV
Nuvarande omständigheter

Molnigt Molnigt
Tryck 1014.92 (hPa) - 29.97 (inHg)
Synlighet 6.2 (mil) - 10 (km)
Flygplats
Flygplatskod EDVE

Plats: Braunschweig-Wolfsburg Airport
Distans: 35 (km)

Metar:
EDVE 220950Z 33007KT 290V030 9999 OVC030 17/11 Q1015

Tid: 22-06-2021 11:50 CEST